sensor_id;sensor_type;location;lat;lon;timestamp;P1;durP1;ratioP1;P2;durP2;ratioP2
69951;SDS011;60406;48.408;13.392;2023-05-20T00:02:24;8.95;;;8.07;;
69951;SDS011;60406;48.408;13.392;2023-05-20T00:07:25;12.27;;;9.27;;
69951;SDS011;60406;48.408;13.392;2023-05-20T00:12:26;12.80;;;9.48;;
69951;SDS011;60406;48.408;13.392;2023-05-20T00:17:27;11.18;;;10.07;;
69951;SDS011;60406;48.408;13.392;2023-05-20T00:22:28;10.35;;;9.25;;
69951;SDS011;60406;48.408;13.392;2023-05-20T00:27:29;13.98;;;10.70;;
69951;SDS011;60406;48.408;13.392;2023-05-20T00:32:30;11.02;;;9.93;;
69951;SDS011;60406;48.408;13.392;2023-05-20T00:37:30;13.02;;;11.13;;
69951;SDS011;60406;48.408;13.392;2023-05-20T00:42:31;11.07;;;9.88;;
69951;SDS011;60406;48.408;13.392;2023-05-20T00:47:32;12.95;;;10.55;;
69951;SDS011;60406;48.408;13.392;2023-05-20T00:52:33;12.25;;;10.52;;
69951;SDS011;60406;48.408;13.392;2023-05-20T00:57:34;15.45;;;11.68;;
69951;SDS011;60406;48.408;13.392;2023-05-20T01:02:35;13.27;;;11.75;;
69951;SDS011;60406;48.408;13.392;2023-05-20T01:07:36;19.33;;;12.18;;
69951;SDS011;60406;48.408;13.392;2023-05-20T01:12:59;16.90;;;10.75;;
69951;SDS011;60406;48.408;13.392;2023-05-20T01:18:00;16.17;;;11.75;;
69951;SDS011;60406;48.408;13.392;2023-05-20T01:23:01;14.25;;;11.80;;
69951;SDS011;60406;48.408;13.392;2023-05-20T01:28:02;15.18;;;11.32;;
69951;SDS011;60406;48.408;13.392;2023-05-20T01:33:04;16.55;;;11.73;;
69951;SDS011;60406;48.408;13.392;2023-05-20T01:38:08;13.82;;;12.40;;
69951;SDS011;60406;48.408;13.392;2023-05-20T01:43:09;14.52;;;10.95;;
69951;SDS011;60406;48.408;13.392;2023-05-20T01:48:10;14.02;;;12.43;;
69951;SDS011;60406;48.408;13.392;2023-05-20T01:53:11;15.02;;;11.73;;
69951;SDS011;60406;48.408;13.392;2023-05-20T01:58:12;15.23;;;11.68;;
69951;SDS011;60406;48.408;13.392;2023-05-20T02:03:13;15.07;;;11.93;;
69951;SDS011;60406;48.408;13.392;2023-05-20T02:08:14;16.80;;;12.35;;
69951;SDS011;60406;48.408;13.392;2023-05-20T02:13:16;15.63;;;11.73;;
69951;SDS011;60406;48.408;13.392;2023-05-20T02:18:17;17.67;;;12.27;;
69951;SDS011;60406;48.408;13.392;2023-05-20T02:23:17;14.02;;;11.82;;
69951;SDS011;60406;48.408;13.392;2023-05-20T02:28:18;15.05;;;11.82;;
69951;SDS011;60406;48.408;13.392;2023-05-20T02:33:19;18.88;;;12.20;;
69951;SDS011;60406;48.408;13.392;2023-05-20T02:38:20;14.50;;;12.70;;
69951;SDS011;60406;48.408;13.392;2023-05-20T02:43:21;16.77;;;12.18;;
69951;SDS011;60406;48.408;13.392;2023-05-20T02:48:22;14.43;;;12.57;;
69951;SDS011;60406;48.408;13.392;2023-05-20T02:53:23;13.55;;;12.10;;
69951;SDS011;60406;48.408;13.392;2023-05-20T02:58:24;14.57;;;10.82;;
69951;SDS011;60406;48.408;13.392;2023-05-20T03:03:25;13.48;;;11.27;;
69951;SDS011;60406;48.408;13.392;2023-05-20T03:08:25;15.20;;;12.60;;
69951;SDS011;60406;48.408;13.392;2023-05-20T03:13:26;13.93;;;12.45;;
69951;SDS011;60406;48.408;13.392;2023-05-20T03:18:27;15.20;;;12.20;;
69951;SDS011;60406;48.408;13.392;2023-05-20T03:23:28;16.77;;;12.98;;
69951;SDS011;60406;48.408;13.392;2023-05-20T03:28:29;15.70;;;12.38;;
69951;SDS011;60406;48.408;13.392;2023-05-20T03:33:32;15.20;;;12.45;;
69951;SDS011;60406;48.408;13.392;2023-05-20T03:38:34;17.65;;;13.18;;
69951;SDS011;60406;48.408;13.392;2023-05-20T03:43:34;15.27;;;12.23;;
69951;SDS011;60406;48.408;13.392;2023-05-20T03:48:35;13.18;;;11.80;;
69951;SDS011;60406;48.408;13.392;2023-05-20T03:53:36;15.60;;;12.43;;
69951;SDS011;60406;48.408;13.392;2023-05-20T03:58:37;16.83;;;12.77;;
69951;SDS011;60406;48.408;13.392;2023-05-20T04:03:38;15.85;;;12.43;;
69951;SDS011;60406;48.408;13.392;2023-05-20T04:08:39;13.55;;;11.90;;
69951;SDS011;60406;48.408;13.392;2023-05-20T04:13:40;16.50;;;12.88;;
69951;SDS011;60406;48.408;13.392;2023-05-20T04:18:41;14.85;;;12.13;;
69951;SDS011;60406;48.408;13.392;2023-05-20T04:23:42;14.18;;;12.77;;
69951;SDS011;60406;48.408;13.392;2023-05-20T04:28:43;16.00;;;12.32;;
69951;SDS011;60406;48.408;13.392;2023-05-20T04:33:44;15.65;;;12.27;;
69951;SDS011;60406;48.408;13.392;2023-05-20T04:38:45;13.45;;;11.80;;
69951;SDS011;60406;48.408;13.392;2023-05-20T04:43:45;12.02;;;10.82;;
69951;SDS011;60406;48.408;13.392;2023-05-20T04:48:46;17.38;;;11.85;;
69951;SDS011;60406;48.408;13.392;2023-05-20T04:53:47;13.45;;;12.02;;
69951;SDS011;60406;48.408;13.392;2023-05-20T04:58:48;12.85;;;11.60;;
69951;SDS011;60406;48.408;13.392;2023-05-20T05:03:49;12.85;;;11.55;;
69951;SDS011;60406;48.408;13.392;2023-05-20T05:08:50;12.38;;;11.15;;
69951;SDS011;60406;48.408;13.392;2023-05-20T05:13:51;13.25;;;11.85;;
69951;SDS011;60406;48.408;13.392;2023-05-20T05:18:52;17.30;;;12.15;;
69951;SDS011;60406;48.408;13.392;2023-05-20T05:23:52;13.32;;;12.00;;
69951;SDS011;60406;48.408;13.392;2023-05-20T05:28:53;11.65;;;10.43;;
69951;SDS011;60406;48.408;13.392;2023-05-20T05:33:54;14.18;;;11.57;;
69951;SDS011;60406;48.408;13.392;2023-05-20T05:38:55;15.32;;;11.07;;
69951;SDS011;60406;48.408;13.392;2023-05-20T05:43:57;12.93;;;11.63;;
69951;SDS011;60406;48.408;13.392;2023-05-20T05:48:58;12.88;;;11.30;;
69951;SDS011;60406;48.408;13.392;2023-05-20T05:53:59;12.93;;;11.50;;
69951;SDS011;60406;48.408;13.392;2023-05-20T05:59:00;15.70;;;11.98;;
69951;SDS011;60406;48.408;13.392;2023-05-20T06:04:01;13.40;;;11.63;;
69951;SDS011;60406;48.408;13.392;2023-05-20T06:09:02;15.20;;;11.75;;
69951;SDS011;60406;48.408;13.392;2023-05-20T06:14:02;15.15;;;12.25;;
69951;SDS011;60406;48.408;13.392;2023-05-20T06:19:03;14.35;;;10.88;;
69951;SDS011;60406;48.408;13.392;2023-05-20T06:24:04;13.38;;;12.00;;
69951;SDS011;60406;48.408;13.392;2023-05-20T06:29:05;12.70;;;11.40;;
69951;SDS011;60406;48.408;13.392;2023-05-20T06:34:06;11.68;;;10.52;;
69951;SDS011;60406;48.408;13.392;2023-05-20T06:39:07;18.65;;;11.10;;
69951;SDS011;60406;48.408;13.392;2023-05-20T06:44:08;14.65;;;12.43;;
69951;SDS011;60406;48.408;13.392;2023-05-20T06:49:09;15.15;;;13.63;;
69951;SDS011;60406;48.408;13.392;2023-05-20T06:54:09;14.75;;;13.18;;
69951;SDS011;60406;48.408;13.392;2023-05-20T06:59:10;14.82;;;13.32;;
69951;SDS011;60406;48.408;13.392;2023-05-20T07:04:11;22.95;;;15.60;;
69951;SDS011;60406;48.408;13.392;2023-05-20T07:09:12;17.48;;;14.23;;
69951;SDS011;60406;48.408;13.392;2023-05-20T07:14:13;18.20;;;16.17;;
69951;SDS011;60406;48.408;13.392;2023-05-20T07:19:14;18.27;;;15.30;;
69951;SDS011;60406;48.408;13.392;2023-05-20T07:24:15;21.23;;;15.27;;
69951;SDS011;60406;48.408;13.392;2023-05-20T07:29:16;16.42;;;14.57;;
69951;SDS011;60406;48.408;13.392;2023-05-20T07:34:17;18.35;;;14.77;;
69951;SDS011;60406;48.408;13.392;2023-05-20T07:39:18;18.08;;;15.63;;
69951;SDS011;60406;48.408;13.392;2023-05-20T07:44:19;18.63;;;16.70;;
69951;SDS011;60406;48.408;13.392;2023-05-20T07:49:20;16.10;;;14.45;;
69951;SDS011;60406;48.408;13.392;2023-05-20T07:54:21;17.42;;;15.63;;
69951;SDS011;60406;48.408;13.392;2023-05-20T07:59:22;19.27;;;14.65;;
69951;SDS011;60406;48.408;13.392;2023-05-20T08:04:23;14.32;;;12.85;;
69951;SDS011;60406;48.408;13.392;2023-05-20T08:09:24;13.30;;;11.55;;
69951;SDS011;60406;48.408;13.392;2023-05-20T08:14:25;17.45;;;12.10;;
69951;SDS011;60406;48.408;13.392;2023-05-20T08:19:26;14.95;;;12.05;;
69951;SDS011;60406;48.408;13.392;2023-05-20T08:24:27;14.00;;;11.70;;
69951;SDS011;60406;48.408;13.392;2023-05-20T08:29:28;18.90;;;12.68;;
69951;SDS011;60406;48.408;13.392;2023-05-20T08:34:29;15.50;;;11.82;;
69951;SDS011;60406;48.408;13.392;2023-05-20T08:39:30;15.00;;;10.95;;
69951;SDS011;60406;48.408;13.392;2023-05-20T08:44:31;14.15;;;11.50;;
69951;SDS011;60406;48.408;13.392;2023-05-20T08:49:32;14.20;;;11.43;;
69951;SDS011;60406;48.408;13.392;2023-05-20T08:54:51;14.27;;;10.20;;
69951;SDS011;60406;48.408;13.392;2023-05-20T08:59:54;11.90;;;10.10;;
69951;SDS011;60406;48.408;13.392;2023-05-20T09:04:55;12.25;;;10.02;;
69951;SDS011;60406;48.408;13.392;2023-05-20T09:09:56;13.30;;;9.80;;
69951;SDS011;60406;48.408;13.392;2023-05-20T09:14:57;13.20;;;9.27;;
69951;SDS011;60406;48.408;13.392;2023-05-20T09:19:58;96.22;;;23.27;;
69951;SDS011;60406;48.408;13.392;2023-05-20T09:24:59;51.22;;;17.05;;
69951;SDS011;60406;48.408;13.392;2023-05-20T09:30:00;9.98;;;8.93;;
69951;SDS011;60406;48.408;13.392;2023-05-20T09:35:01;33.08;;;13.82;;
69951;SDS011;60406;48.408;13.392;2023-05-20T09:40:03;25.23;;;11.10;;
69951;SDS011;60406;48.408;13.392;2023-05-20T09:45:04;11.25;;;9.15;;
69951;SDS011;60406;48.408;13.392;2023-05-20T09:50:07;11.73;;;9.00;;
69951;SDS011;60406;48.408;13.392;2023-05-20T09:55:08;12.55;;;8.85;;
69951;SDS011;60406;48.408;13.392;2023-05-20T10:00:10;30.30;;;14.73;;
69951;SDS011;60406;48.408;13.392;2023-05-20T10:05:14;21.35;;;13.10;;
69951;SDS011;60406;48.408;13.392;2023-05-20T10:10:37;12.55;;;8.85;;
69951;SDS011;60406;48.408;13.392;2023-05-20T10:21:23;11.23;;;8.75;;
69951;SDS011;60406;48.408;13.392;2023-05-20T10:26:24;8.80;;;7.93;;
69951;SDS011;60406;48.408;13.392;2023-05-20T10:31:42;8.77;;;7.47;;
69951;SDS011;60406;48.408;13.392;2023-05-20T10:42:06;10.73;;;7.75;;
69951;SDS011;60406;48.408;13.392;2023-05-20T10:47:08;10.82;;;7.88;;
69951;SDS011;60406;48.408;13.392;2023-05-20T10:52:09;10.07;;;8.07;;
69951;SDS011;60406;48.408;13.392;2023-05-20T10:57:10;8.98;;;7.70;;
69951;SDS011;60406;48.408;13.392;2023-05-20T11:02:10;8.82;;;7.80;;
69951;SDS011;60406;48.408;13.392;2023-05-20T11:07:12;12.23;;;8.48;;
69951;SDS011;60406;48.408;13.392;2023-05-20T11:12:13;11.48;;;8.13;;
69951;SDS011;60406;48.408;13.392;2023-05-20T11:17:14;9.68;;;7.60;;
69951;SDS011;60406;48.408;13.392;2023-05-20T11:22:15;11.38;;;7.55;;
69951;SDS011;60406;48.408;13.392;2023-05-20T11:27:16;10.52;;;8.20;;
69951;SDS011;60406;48.408;13.392;2023-05-20T11:32:18;9.02;;;8.23;;
69951;SDS011;60406;48.408;13.392;2023-05-20T11:37:19;8.98;;;8.07;;
69951;SDS011;60406;48.408;13.392;2023-05-20T11:42:20;10.10;;;7.75;;
69951;SDS011;60406;48.408;13.392;2023-05-20T11:47:24;9.02;;;7.93;;
69951;SDS011;60406;48.408;13.392;2023-05-20T11:52:27;16.13;;;7.68;;
69951;SDS011;60406;48.408;13.392;2023-05-20T11:57:28;10.63;;;8.48;;
69951;SDS011;60406;48.408;13.392;2023-05-20T12:02:30;12.60;;;8.52;;
69951;SDS011;60406;48.408;13.392;2023-05-20T12:07:31;11.10;;;7.93;;
69951;SDS011;60406;48.408;13.392;2023-05-20T12:12:32;8.30;;;7.40;;
69951;SDS011;60406;48.408;13.392;2023-05-20T12:17:42;10.98;;;7.90;;
69951;SDS011;60406;48.408;13.392;2023-05-20T12:22:45;8.90;;;8.05;;
69951;SDS011;60406;48.408;13.392;2023-05-20T12:27:46;11.45;;;7.75;;
69951;SDS011;60406;48.408;13.392;2023-05-20T12:32:48;8.77;;;7.82;;
69951;SDS011;60406;48.408;13.392;2023-05-20T12:37:49;8.00;;;7.20;;
69951;SDS011;60406;48.408;13.392;2023-05-20T12:42:50;12.40;;;7.63;;
69951;SDS011;60406;48.408;13.392;2023-05-20T12:47:51;10.57;;;7.88;;
69951;SDS011;60406;48.408;13.392;2023-05-20T12:52:53;7.97;;;7.17;;
69951;SDS011;60406;48.408;13.392;2023-05-20T12:57:54;9.43;;;8.00;;
69951;SDS011;60406;48.408;13.392;2023-05-20T13:02:54;10.00;;;7.38;;
69951;SDS011;60406;48.408;13.392;2023-05-20T13:07:55;8.95;;;8.05;;
69951;SDS011;60406;48.408;13.392;2023-05-20T13:12:56;9.10;;;8.23;;
69951;SDS011;60406;48.408;13.392;2023-05-20T13:17:57;8.95;;;7.80;;
69951;SDS011;60406;48.408;13.392;2023-05-20T13:22:58;9.77;;;8.75;;
69951;SDS011;60406;48.408;13.392;2023-05-20T13:27:59;9.60;;;8.65;;
69951;SDS011;60406;48.408;13.392;2023-05-20T13:33:00;12.57;;;8.25;;
69951;SDS011;60406;48.408;13.392;2023-05-20T13:38:01;12.77;;;8.65;;
69951;SDS011;60406;48.408;13.392;2023-05-20T13:43:02;11.48;;;8.55;;
69951;SDS011;60406;48.408;13.392;2023-05-20T13:48:02;10.32;;;8.25;;
69951;SDS011;60406;48.408;13.392;2023-05-20T13:53:03;11.13;;;8.77;;
69951;SDS011;60406;48.408;13.392;2023-05-20T13:58:04;9.38;;;8.40;;
69951;SDS011;60406;48.408;13.392;2023-05-20T14:03:05;10.13;;;9.13;;
69951;SDS011;60406;48.408;13.392;2023-05-20T14:08:06;10.80;;;8.63;;
69951;SDS011;60406;48.408;13.392;2023-05-20T14:13:07;13.10;;;8.77;;
69951;SDS011;60406;48.408;13.392;2023-05-20T14:18:08;8.68;;;7.70;;
69951;SDS011;60406;48.408;13.392;2023-05-20T14:23:08;10.07;;;8.45;;
69951;SDS011;60406;48.408;13.392;2023-05-20T14:28:09;9.02;;;8.13;;
69951;SDS011;60406;48.408;13.392;2023-05-20T14:33:10;9.73;;;8.02;;
69951;SDS011;60406;48.408;13.392;2023-05-20T14:38:11;14.60;;;8.07;;
69951;SDS011;60406;48.408;13.392;2023-05-20T14:43:12;13.68;;;8.95;;
69951;SDS011;60406;48.408;13.392;2023-05-20T14:48:13;12.73;;;8.52;;
69951;SDS011;60406;48.408;13.392;2023-05-20T14:53:15;10.52;;;8.50;;
69951;SDS011;60406;48.408;13.392;2023-05-20T14:58:16;8.97;;;8.07;;
69951;SDS011;60406;48.408;13.392;2023-05-20T15:03:17;9.60;;;8.57;;
69951;SDS011;60406;48.408;13.392;2023-05-20T15:08:19;10.48;;;9.48;;
69951;SDS011;60406;48.408;13.392;2023-05-20T15:13:20;11.77;;;9.03;;
69951;SDS011;60406;48.408;13.392;2023-05-20T15:18:20;10.43;;;8.73;;
69951;SDS011;60406;48.408;13.392;2023-05-20T15:23:21;10.88;;;9.77;;
69951;SDS011;60406;48.408;13.392;2023-05-20T15:28:22;15.25;;;9.82;;
69951;SDS011;60406;48.408;13.392;2023-05-20T15:33:23;14.65;;;10.02;;
69951;SDS011;60406;48.408;13.392;2023-05-20T15:38:24;11.55;;;10.35;;
69951;SDS011;60406;48.408;13.392;2023-05-20T15:43:25;15.95;;;9.65;;
69951;SDS011;60406;48.408;13.392;2023-05-20T15:48:26;15.68;;;10.00;;
69951;SDS011;60406;48.408;13.392;2023-05-20T15:53:27;11.25;;;10.13;;
69951;SDS011;60406;48.408;13.392;2023-05-20T15:58:27;10.85;;;9.77;;
69951;SDS011;60406;48.408;13.392;2023-05-20T16:03:28;11.40;;;9.82;;
69951;SDS011;60406;48.408;13.392;2023-05-20T16:08:29;11.80;;;10.38;;
69951;SDS011;60406;48.408;13.392;2023-05-20T16:13:30;15.65;;;10.52;;
69951;SDS011;60406;48.408;13.392;2023-05-20T16:18:31;10.48;;;9.40;;
69951;SDS011;60406;48.408;13.392;2023-05-20T16:23:32;11.77;;;9.88;;
69951;SDS011;60406;48.408;13.392;2023-05-20T16:28:33;11.38;;;9.77;;
69951;SDS011;60406;48.408;13.392;2023-05-20T16:33:34;9.57;;;8.45;;
69951;SDS011;60406;48.408;13.392;2023-05-20T16:38:35;10.07;;;9.13;;
69951;SDS011;60406;48.408;13.392;2023-05-20T16:43:36;10.32;;;9.32;;
69951;SDS011;60406;48.408;13.392;2023-05-20T16:48:36;10.48;;;9.48;;
69951;SDS011;60406;48.408;13.392;2023-05-20T16:53:37;13.82;;;8.90;;
69951;SDS011;60406;48.408;13.392;2023-05-20T16:58:38;10.43;;;9.32;;
69951;SDS011;60406;48.408;13.392;2023-05-20T17:03:39;10.70;;;9.10;;
69951;SDS011;60406;48.408;13.392;2023-05-20T17:08:40;11.40;;;10.30;;
69951;SDS011;60406;48.408;13.392;2023-05-20T17:13:41;11.30;;;9.88;;
69951;SDS011;60406;48.408;13.392;2023-05-20T17:18:42;11.00;;;9.90;;
69951;SDS011;60406;48.408;13.392;2023-05-20T17:23:43;12.48;;;11.27;;
69951;SDS011;60406;48.408;13.392;2023-05-20T17:28:44;12.80;;;10.35;;
69951;SDS011;60406;48.408;13.392;2023-05-20T17:33:44;10.52;;;9.48;;
69951;SDS011;60406;48.408;13.392;2023-05-20T17:38:45;13.32;;;10.70;;
69951;SDS011;60406;48.408;13.392;2023-05-20T17:43:46;16.42;;;11.18;;
69951;SDS011;60406;48.408;13.392;2023-05-20T17:48:47;11.73;;;10.27;;
69951;SDS011;60406;48.408;13.392;2023-05-20T17:53:48;12.55;;;11.35;;
69951;SDS011;60406;48.408;13.392;2023-05-20T17:58:49;17.27;;;10.98;;
69951;SDS011;60406;48.408;13.392;2023-05-20T18:03:50;14.82;;;11.77;;
69951;SDS011;60406;48.408;13.392;2023-05-20T18:08:51;12.57;;;11.27;;
69951;SDS011;60406;48.408;13.392;2023-05-20T18:13:51;16.25;;;12.13;;
69951;SDS011;60406;48.408;13.392;2023-05-20T18:18:53;13.40;;;10.48;;
69951;SDS011;60406;48.408;13.392;2023-05-20T18:23:54;13.02;;;10.77;;
69951;SDS011;60406;48.408;13.392;2023-05-20T18:28:55;16.85;;;12.55;;
69951;SDS011;60406;48.408;13.392;2023-05-20T18:33:56;12.80;;;10.50;;
69951;SDS011;60406;48.408;13.392;2023-05-20T18:38:56;14.70;;;11.55;;
69951;SDS011;60406;48.408;13.392;2023-05-20T18:43:57;15.35;;;11.68;;
69951;SDS011;60406;48.408;13.392;2023-05-20T18:48:58;15.85;;;11.50;;
69951;SDS011;60406;48.408;13.392;2023-05-20T18:53:59;22.52;;;14.25;;
69951;SDS011;60406;48.408;13.392;2023-05-20T18:59:00;13.18;;;11.40;;
69951;SDS011;60406;48.408;13.392;2023-05-20T19:04:01;14.02;;;10.45;;
69951;SDS011;60406;48.408;13.392;2023-05-20T19:09:05;15.38;;;10.77;;
69951;SDS011;60406;48.408;13.392;2023-05-20T19:14:06;11.82;;;10.63;;
69951;SDS011;60406;48.408;13.392;2023-05-20T19:19:06;14.45;;;11.63;;
69951;SDS011;60406;48.408;13.392;2023-05-20T19:24:07;14.32;;;12.07;;
69951;SDS011;60406;48.408;13.392;2023-05-20T19:29:08;14.55;;;11.13;;
69951;SDS011;60406;48.408;13.392;2023-05-20T19:34:09;15.85;;;11.63;;
69951;SDS011;60406;48.408;13.392;2023-05-20T19:39:10;14.18;;;11.07;;
69951;SDS011;60406;48.408;13.392;2023-05-20T19:44:11;12.60;;;11.30;;
69951;SDS011;60406;48.408;13.392;2023-05-20T19:49:12;11.43;;;9.80;;
69951;SDS011;60406;48.408;13.392;2023-05-20T19:54:12;13.30;;;11.23;;
69951;SDS011;60406;48.408;13.392;2023-05-20T19:59:13;14.38;;;11.25;;
69951;SDS011;60406;48.408;13.392;2023-05-20T20:04:14;11.68;;;10.52;;
69951;SDS011;60406;48.408;13.392;2023-05-20T20:09:15;13.30;;;11.02;;
69951;SDS011;60406;48.408;13.392;2023-05-20T20:14:16;14.05;;;11.43;;
69951;SDS011;60406;48.408;13.392;2023-05-20T20:19:17;16.40;;;12.35;;
69951;SDS011;60406;48.408;13.392;2023-05-20T20:24:18;11.45;;;10.30;;
69951;SDS011;60406;48.408;13.392;2023-05-20T20:29:22;15.50;;;12.80;;
69951;SDS011;60406;48.408;13.392;2023-05-20T20:34:23;13.95;;;11.50;;
69951;SDS011;60406;48.408;13.392;2023-05-20T20:39:24;12.18;;;10.93;;
69951;SDS011;60406;48.408;13.392;2023-05-20T20:44:25;13.80;;;11.15;;
69951;SDS011;60406;48.408;13.392;2023-05-20T20:49:25;13.18;;;11.77;;
69951;SDS011;60406;48.408;13.392;2023-05-20T20:54:26;15.20;;;11.88;;
69951;SDS011;60406;48.408;13.392;2023-05-20T20:59:27;13.38;;;11.95;;
69951;SDS011;60406;48.408;13.392;2023-05-20T21:04:28;17.08;;;11.45;;
69951;SDS011;60406;48.408;13.392;2023-05-20T21:09:29;14.30;;;11.95;;
69951;SDS011;60406;48.408;13.392;2023-05-20T21:14:30;13.68;;;11.80;;
69951;SDS011;60406;48.408;13.392;2023-05-20T21:19:31;14.50;;;12.73;;
69951;SDS011;60406;48.408;13.392;2023-05-20T21:24:31;14.52;;;13.02;;
69951;SDS011;60406;48.408;13.392;2023-05-20T21:29:32;17.80;;;13.35;;
69951;SDS011;60406;48.408;13.392;2023-05-20T21:34:33;17.90;;;12.88;;
69951;SDS011;60406;48.408;13.392;2023-05-20T21:39:34;14.40;;;12.23;;
69951;SDS011;60406;48.408;13.392;2023-05-20T21:44:35;14.50;;;12.82;;
69951;SDS011;60406;48.408;13.392;2023-05-20T21:49:36;15.18;;;13.75;;
69951;SDS011;60406;48.408;13.392;2023-05-20T21:54:37;14.48;;;12.98;;
69951;SDS011;60406;48.408;13.392;2023-05-20T21:59:37;15.85;;;13.73;;
69951;SDS011;60406;48.408;13.392;2023-05-20T22:04:38;20.08;;;13.63;;
69951;SDS011;60406;48.408;13.392;2023-05-20T22:09:39;18.23;;;13.40;;
69951;SDS011;60406;48.408;13.392;2023-05-20T22:14:40;14.55;;;12.23;;
69951;SDS011;60406;48.408;13.392;2023-05-20T22:19:41;19.63;;;14.07;;
69951;SDS011;60406;48.408;13.392;2023-05-20T22:24:42;14.55;;;13.00;;
69951;SDS011;60406;48.408;13.392;2023-05-20T22:29:43;13.80;;;12.35;;
69951;SDS011;60406;48.408;13.392;2023-05-20T22:34:44;13.10;;;11.75;;
69951;SDS011;60406;48.408;13.392;2023-05-20T22:39:44;26.13;;;16.48;;
69951;SDS011;60406;48.408;13.392;2023-05-20T22:44:45;14.23;;;11.65;;
69951;SDS011;60406;48.408;13.392;2023-05-20T22:49:46;19.23;;;12.50;;
69951;SDS011;60406;48.408;13.392;2023-05-20T22:54:47;14.68;;;11.55;;
69951;SDS011;60406;48.408;13.392;2023-05-20T22:59:48;13.35;;;12.00;;
69951;SDS011;60406;48.408;13.392;2023-05-20T23:04:49;13.60;;;11.80;;
69951;SDS011;60406;48.408;13.392;2023-05-20T23:09:50;13.05;;;11.05;;
69951;SDS011;60406;48.408;13.392;2023-05-20T23:14:51;16.02;;;12.93;;
69951;SDS011;60406;48.408;13.392;2023-05-20T23:19:52;13.88;;;12.43;;
69951;SDS011;60406;48.408;13.392;2023-05-20T23:24:52;14.38;;;11.02;;
69951;SDS011;60406;48.408;13.392;2023-05-20T23:29:53;13.27;;;10.35;;
69951;SDS011;60406;48.408;13.392;2023-05-20T23:34:54;13.27;;;10.48;;
69951;SDS011;60406;48.408;13.392;2023-05-20T23:39:55;14.27;;;11.15;;
69951;SDS011;60406;48.408;13.392;2023-05-20T23:44:56;14.23;;;11.18;;
69951;SDS011;60406;48.408;13.392;2023-05-20T23:49:57;15.82;;;11.18;;
69951;SDS011;60406;48.408;13.392;2023-05-20T23:54:58;15.90;;;11.88;;
69951;SDS011;60406;48.408;13.392;2023-05-20T23:59:59;15.20;;;12.93;;
